Time;durP1;ratioP1;P1;durP2;ratioP2;P2;SDS_P1;SDS_P2;PMS_P1;PMS_P2;Temp;Humidity;BMP_temperature;BMP_pressure;BME280_temperature;BME280_humidity;BME280_pressure;Samples;Min_cycle;Max_cycle;Signal;HPM_P1;HPM_P2
2022/02/18 00:02:27;;;;;;;341.48;82.35;;;;;;;;;;5100092;28;20462;-73
2022/02/18 00:04:56;;;;;;;338.83;79.55;;;;;;;;;;5100417;28;20241;-72
2022/02/18 00:07:24;;;;;;;341.60;80.50;;;;;;;;;;5080003;28;20218;-72
2022/02/18 00:09:51;;;;;;;334.07;78.80;;;;;;;;;;5089425;28;20210;-72
2022/02/18 00:12:20;;;;;;;336.65;77.63;;;;;;;;;;5101005;28;20501;-73
2022/02/18 00:14:47;;;;;;;332.38;76.40;;;;;;;;;;5100006;28;20232;-73
2022/02/18 00:17:15;;;;;;;336.40;77.05;;;;;;;;;;5101340;28;20605;-73
2022/02/18 00:19:42;;;;;;;339.05;76.00;;;;;;;;;;5101197;28;20230;-73
2022/02/18 00:22:13;;;;;;;354.33;78.27;;;;;;;;;;5100723;28;20205;-73
2022/02/18 00:24:43;;;;;;;333.85;79.85;;;;;;;;;;5104124;27;20898;-73
2022/02/18 00:27:11;;;;;;;325.35;74.60;;;;;;;;;;5088219;28;20214;-73
2022/02/18 00:29:39;;;;;;;343.42;80.25;;;;;;;;;;5092917;28;20214;-73
2022/02/18 00:32:08;;;;;;;344.80;75.90;;;;;;;;;;5099664;28;20308;-73
2022/02/18 00:34:36;;;;;;;340.83;79.80;;;;;;;;;;5101115;28;20471;-72
2022/02/18 00:37:04;;;;;;;346.23;76.80;;;;;;;;;;5098509;28;20818;-72
2022/02/18 00:39:33;;;;;;;344.10;78.13;;;;;;;;;;5098192;28;20910;-72
2022/02/18 00:42:01;;;;;;;349.27;83.03;;;;;;;;;;5101121;28;20502;-73
2022/02/18 00:44:29;;;;;;;338.57;78.90;;;;;;;;;;5098350;28;20471;-72
2022/02/18 00:46:57;;;;;;;340.10;77.73;;;;;;;;;;5099523;28;20949;-74
2022/02/18 00:49:24;;;;;;;342.70;78.87;;;;;;;;;;5099813;28;20464;-73
2022/02/18 00:51:52;;;;;;;338.53;81.57;;;;;;;;;;5099098;28;20524;-73
2022/02/18 00:54:20;;;;;;;344.23;77.47;;;;;;;;;;5100892;28;20487;-72
2022/02/18 00:56:50;;;;;;;342.98;76.70;;;;;;;;;;5099703;28;20542;-73
2022/02/18 00:59:18;;;;;;;339.90;77.70;;;;;;;;;;5099827;28;20512;-73
2022/02/18 01:01:46;;;;;;;333.70;76.47;;;;;;;;;;5100077;28;20471;-73
2022/02/18 01:04:14;;;;;;;337.43;77.33;;;;;;;;;;5099269;28;20467;-73
2022/02/18 01:06:42;;;;;;;338.60;76.63;;;;;;;;;;5094401;28;20532;-73
2022/02/18 01:09:10;;;;;;;339.60;80.88;;;;;;;;;;5099704;28;20237;-73
2022/02/18 01:11:37;;;;;;;342.23;80.20;;;;;;;;;;5099005;28;20221;-73
2022/02/18 01:14:07;;;;;;;335.95;76.63;;;;;;;;;;5100204;28;20205;-73
2022/02/18 01:16:35;;;;;;;342.57;79.37;;;;;;;;;;5099388;28;20288;-73
2022/02/18 01:19:03;;;;;;;338.75;77.03;;;;;;;;;;5098909;28;20566;-73
2022/02/18 01:21:34;;;;;;;339.70;76.80;;;;;;;;;;5096893;28;20233;-73
2022/02/18 01:24:05;;;;;;;345.07;77.03;;;;;;;;;;5098991;28;20205;-72
2022/02/18 01:26:33;;;;;;;331.92;73.35;;;;;;;;;;5097300;28;20558;-73
2022/02/18 01:29:04;;;;;;;359.33;79.78;;;;;;;;;;5093664;28;20321;-73
2022/02/18 01:31:33;;;;;;;340.85;79.88;;;;;;;;;;5086553;28;20792;-73
2022/02/18 01:34:01;;;;;;;337.13;78.83;;;;;;;;;;5086971;28;20233;-73
2022/02/18 01:36:28;;;;;;;343.80;79.03;;;;;;;;;;5088658;28;20473;-73
2022/02/18 01:38:56;;;;;;;347.13;75.93;;;;;;;;;;5096244;28;20209;-73
2022/02/18 01:41:24;;;;;;;339.37;78.83;;;;;;;;;;5099110;28;20294;-73
2022/02/18 01:43:53;;;;;;;347.75;79.45;;;;;;;;;;5098431;28;20467;-72
2022/02/18 01:46:21;;;;;;;338.63;78.78;;;;;;;;;;5098581;28;20574;-73
2022/02/18 01:48:51;;;;;;;349.58;77.90;;;;;;;;;;5098740;28;20647;-73
2022/02/18 01:51:20;;;;;;;342.25;81.55;;;;;;;;;;5098805;28;20210;-72
2022/02/18 01:53:48;;;;;;;336.42;79.57;;;;;;;;;;5097845;28;20258;-73
2022/02/18 01:56:16;;;;;;;341.33;77.47;;;;;;;;;;5098362;28;20209;-73
2022/02/18 01:58:44;;;;;;;340.80;76.97;;;;;;;;;;5097383;28;20272;-73
2022/02/18 02:01:12;;;;;;;341.48;76.70;;;;;;;;;;5098758;28;20903;-73
2022/02/18 02:03:40;;;;;;;335.10;76.18;;;;;;;;;;5098170;28;20216;-73
2022/02/18 02:06:09;;;;;;;331.73;73.18;;;;;;;;;;5099223;28;20202;-73
2022/02/18 02:08:40;;;;;;;342.55;77.68;;;;;;;;;;5088207;28;20223;-73
2022/02/18 02:11:08;;;;;;;345.80;82.43;;;;;;;;;;5097763;28;20298;-73
2022/02/18 02:13:36;;;;;;;333.67;77.40;;;;;;;;;;5098324;28;20266;-73
2022/02/18 02:16:04;;;;;;;335.60;76.93;;;;;;;;;;5098948;28;20213;-73
2022/02/18 02:18:32;;;;;;;342.65;78.07;;;;;;;;;;5097568;28;20210;-73
2022/02/18 02:21:00;;;;;;;340.10;76.80;;;;;;;;;;5097636;28;20279;-73
2022/02/18 02:23:29;;;;;;;339.33;79.15;;;;;;;;;;5098378;28;20206;-73
2022/02/18 02:25:57;;;;;;;343.13;76.97;;;;;;;;;;5098599;28;20205;-73
2022/02/18 02:28:25;;;;;;;336.73;76.88;;;;;;;;;;5097713;28;20244;-72
2022/02/18 02:30:52;;;;;;;345.23;78.03;;;;;;;;;;5097400;28;20574;-72
2022/02/18 02:33:21;;;;;;;342.85;77.70;;;;;;;;;;5097779;28;20467;-72
2022/02/18 02:35:48;;;;;;;328.02;77.13;;;;;;;;;;5098281;28;20209;-72
2022/02/18 02:38:16;;;;;;;334.23;73.65;;;;;;;;;;5093328;28;20198;-72
2022/02/18 02:40:46;;;;;;;337.38;75.97;;;;;;;;;;5099052;28;20501;-72
2022/02/18 02:43:14;;;;;;;328.20;71.75;;;;;;;;;;5094335;28;21548;-73
2022/02/18 02:45:41;;;;;;;333.08;74.72;;;;;;;;;;5100316;27;20244;-72
2022/02/18 02:48:11;;;;;;;344.80;75.70;;;;;;;;;;5091992;28;20283;-72
2022/02/18 02:50:40;;;;;;;339.40;75.97;;;;;;;;;;5090449;28;20300;-72
2022/02/18 02:53:12;;;;;;;343.52;74.90;;;;;;;;;;5096840;27;20536;-73
2022/02/18 02:55:40;;;;;;;329.42;71.88;;;;;;;;;;5097178;28;20451;-74
2022/02/18 02:58:09;;;;;;;337.08;75.68;;;;;;;;;;5094870;28;20218;-73
2022/02/18 03:00:37;;;;;;;330.63;73.47;;;;;;;;;;5090761;28;20233;-73
2022/02/18 03:03:05;;;;;;;324.40;72.60;;;;;;;;;;5088648;28;20212;-73
2022/02/18 03:05:32;;;;;;;331.55;73.72;;;;;;;;;;5094136;28;20524;-73
2022/02/18 03:08:03;;;;;;;335.17;74.43;;;;;;;;;;5096230;28;20215;-73
2022/02/18 03:10:30;;;;;;;326.05;71.25;;;;;;;;;;5097272;28;20213;-73
2022/02/18 03:12:59;;;;;;;342.57;75.20;;;;;;;;;;5090621;28;20231;-73
2022/02/18 03:15:29;;;;;;;332.30;72.45;;;;;;;;;;5091971;28;20760;-74
2022/02/18 03:17:57;;;;;;;338.23;76.07;;;;;;;;;;5092144;28;20210;-73
2022/02/18 03:20:26;;;;;;;324.67;76.07;;;;;;;;;;5091560;28;20479;-73
2022/02/18 03:22:54;;;;;;;333.77;72.03;;;;;;;;;;5109787;28;20212;-73
2022/02/18 03:25:22;;;;;;;332.75;74.28;;;;;;;;;;5096105;28;22164;-73
2022/02/18 03:27:50;;;;;;;338.15;71.80;;;;;;;;;;5097619;28;20217;-74
2022/02/18 03:30:17;;;;;;;330.88;73.88;;;;;;;;;;5092871;28;20510;-73
2022/02/18 03:32:47;;;;;;;337.77;73.77;;;;;;;;;;5099874;28;20303;-74
2022/02/18 03:35:21;;;;;;;332.35;74.70;;;;;;;;;;5088459;28;21019;-73
2022/02/18 03:37:50;;;;;;;334.95;75.90;;;;;;;;;;5094400;28;20209;-73
2022/02/18 03:40:18;;;;;;;335.13;77.88;;;;;;;;;;5096267;28;20530;-73
2022/02/18 03:42:48;;;;;;;338.80;80.20;;;;;;;;;;5098985;28;20671;-73
2022/02/18 03:45:16;;;;;;;331.47;75.70;;;;;;;;;;5091290;28;20986;-73
2022/02/18 03:47:43;;;;;;;334.25;77.68;;;;;;;;;;5094224;28;20958;-73
2022/02/18 03:50:13;;;;;;;327.60;74.65;;;;;;;;;;5089371;28;20205;-73
2022/02/18 03:52:42;;;;;;;332.83;74.78;;;;;;;;;;5090558;28;20305;-73
2022/02/18 03:55:11;;;;;;;323.60;73.63;;;;;;;;;;5093117;28;20554;-73
2022/02/18 03:57:39;;;;;;;333.38;75.13;;;;;;;;;;5090243;28;20292;-73
2022/02/18 04:00:08;;;;;;;327.17;72.70;;;;;;;;;;5084902;28;20207;-73
2022/02/18 04:02:36;;;;;;;331.27;75.45;;;;;;;;;;5085668;28;20464;-73
2022/02/18 04:05:04;;;;;;;336.40;75.70;;;;;;;;;;5090926;28;20271;-73
2022/02/18 04:07:34;;;;;;;325.03;74.67;;;;;;;;;;5092477;28;20479;-73
2022/02/18 04:10:01;;;;;;;337.57;75.73;;;;;;;;;;5091049;28;20690;-73
2022/02/18 04:12:30;;;;;;;312.60;72.80;;;;;;;;;;5089810;28;20470;-73
2022/02/18 04:14:57;;;;;;;327.07;75.27;;;;;;;;;;5085244;28;20865;-73
2022/02/18 04:17:27;;;;;;;323.90;76.93;;;;;;;;;;5093016;28;20471;-73
2022/02/18 04:20:01;;;;;;;313.63;72.90;;;;;;;;;;5098122;28;20467;-73
2022/02/18 04:22:30;;;;;;;315.77;73.67;;;;;;;;;;5094282;28;20590;-73
2022/02/18 04:25:01;;;;;;;321.40;77.40;;;;;;;;;;5099070;28;20470;-73
2022/02/18 04:27:30;;;;;;;326.10;81.03;;;;;;;;;;5097558;28;20467;-73
2022/02/18 04:29:59;;;;;;;332.20;82.93;;;;;;;;;;5099398;28;20856;-71
2022/02/18 04:32:28;;;;;;;320.10;76.27;;;;;;;;;;5084087;28;20452;-74
2022/02/18 04:34:57;;;;;;;320.53;76.40;;;;;;;;;;5094267;28;20464;-73
2022/02/18 04:37:40;;;;;;;311.23;77.53;;;;;;;;;;5099087;28;20790;-73
2022/02/18 04:40:11;;;;;;;317.93;80.30;;;;;;;;;;5096810;28;20448;-73
2022/02/18 04:42:40;;;;;;;302.50;76.57;;;;;;;;;;5090018;28;20464;-73
2022/02/18 04:45:10;;;;;;;319.53;80.30;;;;;;;;;;5096464;28;20475;-73
2022/02/18 04:47:39;;;;;;;312.30;77.10;;;;;;;;;;5097983;28;20528;-73
2022/02/18 04:50:11;;;;;;;325.80;87.50;;;;;;;;;;5099326;28;20737;-73
2022/02/18 04:52:39;;;;;;;298.27;74.50;;;;;;;;;;5099681;28;20446;-72
2022/02/18 04:55:12;;;;;;;301.23;75.70;;;;;;;;;;5083158;28;20550;-72
2022/02/18 04:57:47;;;;;;;307.23;77.60;;;;;;;;;;5096550;28;20844;-73
2022/02/18 05:00:18;;;;;;;294.07;74.20;;;;;;;;;;5097308;28;20553;-73
2022/02/18 05:02:46;;;;;;;304.63;73.50;;;;;;;;;;5093408;28;20491;-72
2022/02/18 05:05:14;;;;;;;317.77;82.63;;;;;;;;;;5098374;28;20458;-73
2022/02/18 05:07:43;;;;;;;299.37;74.07;;;;;;;;;;5099476;28;20734;-73
2022/02/18 05:10:14;;;;;;;306.03;75.57;;;;;;;;;;5098896;28;20464;-73
2022/02/18 05:12:43;;;;;;;285.60;74.20;;;;;;;;;;5095856;28;20482;-72
2022/02/18 05:15:11;;;;;;;301.33;75.27;;;;;;;;;;5098961;28;20868;-72
2022/02/18 05:17:39;;;;;;;285.93;73.07;;;;;;;;;;5097753;28;20491;-73
2022/02/18 05:20:07;;;;;;;307.20;78.20;;;;;;;;;;5096219;28;20783;-73
2022/02/18 05:22:35;;;;;;;310.00;76.13;;;;;;;;;;5096902;28;20479;-72
2022/02/18 05:25:05;;;;;;;301.53;75.67;;;;;;;;;;5094872;28;20476;-73
2022/02/18 05:27:38;;;;;;;311.97;75.70;;;;;;;;;;5095675;28;20467;-73
2022/02/18 05:30:06;;;;;;;301.47;76.07;;;;;;;;;;5092895;28;20558;-73
2022/02/18 05:32:34;;;;;;;305.10;77.10;;;;;;;;;;5095153;28;20540;-73
2022/02/18 05:35:02;;;;;;;295.37;79.40;;;;;;;;;;5092428;28;20478;-73
2022/02/18 05:37:30;;;;;;;299.30;76.90;;;;;;;;;;5096097;28;20460;-73
2022/02/18 05:40:01;;;;;;;315.57;79.80;;;;;;;;;;5098708;28;20452;-73
2022/02/18 05:42:30;;;;;;;320.23;81.43;;;;;;;;;;5095478;28;20485;-73
2022/02/18 05:45:03;;;;;;;329.75;88.95;;;;;;;;;;5096322;28;20566;-73
2022/02/18 05:47:36;;;;;;;308.37;77.80;;;;;;;;;;5094834;28;20590;-73
2022/02/18 05:50:05;;;;;;;310.27;75.93;;;;;;;;;;5093852;28;20503;-72
2022/02/18 05:52:33;;;;;;;327.75;85.90;;;;;;;;;;5092110;28;20486;-72
2022/02/18 05:55:06;;;;;;;311.87;81.60;;;;;;;;;;5089093;28;20594;-73
2022/02/18 05:57:35;;;;;;;315.90;82.17;;;;;;;;;;5090950;28;20527;-72
2022/02/18 06:00:07;;;;;;;321.03;80.27;;;;;;;;;;5089721;28;20475;-73
2022/02/18 06:02:35;;;;;;;325.40;83.37;;;;;;;;;;5096175;28;20487;-73
2022/02/18 06:05:03;;;;;;;322.77;78.97;;;;;;;;;;5090314;28;20456;-73
2022/02/18 06:07:33;;;;;;;325.40;81.27;;;;;;;;;;5089665;28;20475;-73
2022/02/18 06:10:02;;;;;;;328.73;76.50;;;;;;;;;;5095763;28;20474;-72
2022/02/18 06:12:29;;;;;;;310.33;78.57;;;;;;;;;;5096605;28;20472;-72
2022/02/18 06:14:57;;;;;;;311.70;75.10;;;;;;;;;;5096089;28;20523;-72
2022/02/18 06:17:26;;;;;;;314.30;77.70;;;;;;;;;;5092789;28;20475;-73
2022/02/18 06:19:54;;;;;;;326.70;82.73;;;;;;;;;;5096065;28;20905;-72
2022/02/18 06:22:22;;;;;;;322.73;78.80;;;;;;;;;;5094614;28;20500;-72
2022/02/18 06:24:56;;;;;;;319.57;79.27;;;;;;;;;;5103202;28;20787;-73
2022/02/18 06:27:23;;;;;;;342.10;83.80;;;;;;;;;;5074388;28;20479;-72
2022/02/18 06:29:51;;;;;;;335.93;83.43;;;;;;;;;;5095570;28;20570;-73
2022/02/18 06:32:20;;;;;;;336.67;80.03;;;;;;;;;;5103065;28;20483;-73
2022/02/18 06:34:50;;;;;;;328.70;80.33;;;;;;;;;;5085964;28;20494;-73
2022/02/18 06:37:18;;;;;;;328.60;82.37;;;;;;;;;;5092919;28;20579;-73
2022/02/18 06:39:45;;;;;;;321.90;80.07;;;;;;;;;;5087824;28;20467;-73
2022/02/18 06:42:13;;;;;;;315.40;78.27;;;;;;;;;;5080103;28;20512;-73
2022/02/18 06:44:41;;;;;;;333.97;81.30;;;;;;;;;;5089856;28;20467;-72
2022/02/18 06:47:09;;;;;;;341.40;83.07;;;;;;;;;;5091659;28;20561;-73
2022/02/18 06:49:37;;;;;;;316.07;77.20;;;;;;;;;;5088080;28;20461;-73
2022/02/18 06:52:06;;;;;;;344.17;80.07;;;;;;;;;;5091150;28;20470;-72
2022/02/18 06:54:34;;;;;;;329.83;80.67;;;;;;;;;;5094219;28;20651;-72
2022/02/18 06:57:02;;;;;;;327.73;80.17;;;;;;;;;;5093159;28;20472;-72
2022/02/18 06:59:30;;;;;;;321.83;79.10;;;;;;;;;;5093317;28;20478;-72
2022/02/18 07:02:05;;;;;;;328.60;80.80;;;;;;;;;;5093186;28;20532;-72
2022/02/18 07:04:33;;;;;;;332.97;82.23;;;;;;;;;;5085836;28;20868;-72
2022/02/18 07:07:01;;;;;;;329.00;81.37;;;;;;;;;;5086644;28;21046;-72
2022/02/18 07:09:33;;;;;;;325.07;81.47;;;;;;;;;;5089748;28;20474;-72
2022/02/18 07:12:01;;;;;;;336.57;80.67;;;;;;;;;;5090501;28;20467;-73
2022/02/18 07:14:29;;;;;;;361.17;85.13;;;;;;;;;;5112326;28;20454;-72
2022/02/18 07:16:57;;;;;;;336.50;83.63;;;;;;;;;;5092296;28;20529;-72
2022/02/18 07:19:32;;;;;;;341.97;81.80;;;;;;;;;;5094049;28;20867;-72
2022/02/18 07:22:00;;;;;;;344.33;80.70;;;;;;;;;;5092808;28;20606;-73
2022/02/18 07:24:30;;;;;;;343.50;80.43;;;;;;;;;;5095107;28;20520;-72
2022/02/18 07:27:02;;;;;;;343.98;87.70;;;;;;;;;;5100382;28;20593;-73
2022/02/18 07:29:30;;;;;;;330.10;82.67;;;;;;;;;;5090519;28;20224;-72
2022/02/18 07:31:58;;;;;;;345.17;86.00;;;;;;;;;;5092282;28;20552;-72
2022/02/18 07:34:26;;;;;;;345.60;82.90;;;;;;;;;;5093258;28;20462;-72
2022/02/18 07:36:54;;;;;;;330.05;77.88;;;;;;;;;;5088438;28;20456;-72
2022/02/18 07:39:21;;;;;;;350.83;85.00;;;;;;;;;;5086327;28;20205;-71
2022/02/18 07:41:51;;;;;;;339.43;80.57;;;;;;;;;;5089091;28;20491;-73
2022/02/18 07:44:18;;;;;;;346.13;79.38;;;;;;;;;;5091817;28;20463;-73
2022/02/18 07:46:46;;;;;;;335.23;81.83;;;;;;;;;;5092852;28;20242;-73
2022/02/18 07:49:17;;;;;;;348.50;85.60;;;;;;;;;;5089225;28;20474;-73
2022/02/18 07:51:45;;;;;;;340.30;83.60;;;;;;;;;;5087665;28;20532;-73
2022/02/18 07:54:17;;;;;;;338.70;87.23;;;;;;;;;;5095938;28;20444;-73
2022/02/18 07:56:45;;;;;;;343.07;83.50;;;;;;;;;;5097754;28;20514;-72
2022/02/18 07:59:14;;;;;;;346.40;89.25;;;;;;;;;;5077832;28;20764;-72
2022/02/18 08:01:59;;;;;;;335.73;81.47;;;;;;;;;;5091226;27;20274;-72
2022/02/18 08:07:49;;;;;;;333.67;81.13;;;;;;;;;;5021668;28;20463;-73
2022/02/18 08:10:17;;;;;;;344.10;85.30;;;;;;;;;;5067529;28;20452;-72
2022/02/18 08:12:46;;;;;;;334.13;80.20;;;;;;;;;;5076450;28;20468;-74
2022/02/18 08:15:15;;;;;;;339.67;83.70;;;;;;;;;;5093080;28;20479;-73
2022/02/18 08:17:43;;;;;;;347.60;86.90;;;;;;;;;;5092446;28;20467;-72
2022/02/18 08:20:12;;;;;;;340.70;85.90;;;;;;;;;;5098241;27;20466;-73
2022/02/18 08:22:40;;;;;;;342.05;84.65;;;;;;;;;;5084512;28;20488;-72
2022/02/18 08:25:13;;;;;;;337.63;83.83;;;;;;;;;;5095971;28;20202;-73
2022/02/18 08:27:47;;;;;;;354.87;90.30;;;;;;;;;;5094938;28;20495;-73
2022/02/18 08:30:21;;;;;;;355.37;86.27;;;;;;;;;;5097798;28;20470;-73
2022/02/18 08:32:49;;;;;;;342.77;85.30;;;;;;;;;;5091037;28;20559;-73
2022/02/18 08:35:19;;;;;;;333.13;85.93;;;;;;;;;;5098177;28;20452;-72
2022/02/18 08:37:49;;;;;;;342.03;83.20;;;;;;;;;;5092592;28;20719;-72
2022/02/18 08:40:19;;;;;;;363.13;90.43;;;;;;;;;;5095683;28;20498;-73
2022/02/18 08:42:53;;;;;;;340.60;86.40;;;;;;;;;;5091445;28;20549;-73
2022/02/18 08:45:23;;;;;;;344.70;85.47;;;;;;;;;;5095059;28;20456;-72
2022/02/18 08:47:54;;;;;;;349.27;90.33;;;;;;;;;;5096332;28;20908;-73
2022/02/18 08:50:22;;;;;;;343.77;88.77;;;;;;;;;;5095105;28;20956;-73
2022/02/18 08:52:51;;;;;;;345.40;88.90;;;;;;;;;;5098735;28;20459;-72
2022/02/18 08:55:20;;;;;;;356.73;97.87;;;;;;;;;;5090749;28;20745;-73
2022/02/18 08:57:48;;;;;;;361.27;91.47;;;;;;;;;;5096515;28;20459;-72
2022/02/18 09:00:25;;;;;;;366.50;97.80;;;;;;;;;;5091408;28;20837;-72
2022/02/18 09:02:58;;;;;;;354.10;92.87;;;;;;;;;;5091479;28;20485;-71
2022/02/18 09:05:36;;;;;;;355.77;92.27;;;;;;;;;;5092399;28;20907;-73
2022/02/18 09:08:07;;;;;;;351.53;93.77;;;;;;;;;;5084599;28;20474;-72
2022/02/18 09:10:36;;;;;;;348.60;92.73;;;;;;;;;;5093423;28;20456;-72
2022/02/18 09:13:20;;;;;;;349.97;94.73;;;;;;;;;;5091276;28;20463;-72
2022/02/18 09:15:47;;;;;;;346.43;87.07;;;;;;;;;;5091033;28;20452;-72
2022/02/18 09:18:17;;;;;;;342.80;84.80;;;;;;;;;;5087283;28;20467;-72
2022/02/18 09:20:49;;;;;;;349.63;90.47;;;;;;;;;;5087860;28;20487;-71
2022/02/18 09:23:21;;;;;;;355.70;90.30;;;;;;;;;;5093899;27;20939;-74
2022/02/18 09:25:58;;;;;;;357.53;92.10;;;;;;;;;;5093551;28;20468;-73
2022/02/18 09:28:28;;;;;;;364.73;90.60;;;;;;;;;;5089012;28;20963;-73
2022/02/18 09:31:00;;;;;;;357.83;94.17;;;;;;;;;;5093994;28;20463;-72
2022/02/18 09:33:35;;;;;;;366.27;100.67;;;;;;;;;;5094694;28;20479;-73
2022/02/18 09:36:24;;;;;;;351.07;91.33;;;;;;;;;;5087913;28;20477;-72
2022/02/18 09:38:59;;;;;;;359.17;92.40;;;;;;;;;;5086999;28;20766;-71
2022/02/18 09:41:27;;;;;;;360.43;91.47;;;;;;;;;;5089111;28;20459;-73
2022/02/18 09:43:59;;;;;;;355.13;89.37;;;;;;;;;;5093816;28;20937;-72
2022/02/18 09:46:35;;;;;;;360.23;96.77;;;;;;;;;;5097334;28;20497;-72
2022/02/18 09:49:09;;;;;;;351.47;89.07;;;;;;;;;;5095488;28;20478;-73
2022/02/18 09:51:37;;;;;;;359.30;92.10;;;;;;;;;;5096152;28;20545;-74
2022/02/18 09:54:08;;;;;;;359.40;90.20;;;;;;;;;;5093554;28;20467;-73
2022/02/18 09:56:50;;;;;;;346.57;92.07;;;;;;;;;;5095188;28;20273;-72
2022/02/18 09:59:22;;;;;;;355.87;91.80;;;;;;;;;;5093404;28;20544;-72
2022/02/18 10:02:10;;;;;;;355.10;92.95;;;;;;;;;;5095889;28;20935;-73
2022/02/18 10:07:53;;;;;;;354.63;87.00;;;;;;;;;;5091980;28;20460;-74
2022/02/18 10:10:31;;;;;;;356.17;88.97;;;;;;;;;;5065063;28;20460;-73
2022/02/18 10:13:03;;;;;;;349.67;88.90;;;;;;;;;;5079823;28;20534;-72
2022/02/18 10:15:46;;;;;;;360.10;96.67;;;;;;;;;;5092256;27;20460;-73
2022/02/18 10:21:32;;;;;;;356.25;93.35;;;;;;;;;;5061634;28;20522;-73
2022/02/18 10:24:41;;;;;;;343.53;87.27;;;;;;;;;;5074261;28;20232;-73
2022/02/18 10:27:15;;;;;;;354.70;91.90;;;;;;;;;;5081344;28;20909;-73
2022/02/18 10:30:01;;;;;;;359.43;98.97;;;;;;;;;;5096180;28;20470;-74
2022/02/18 10:32:44;;;;;;;322.13;89.57;;;;;;;;;;5093628;28;20551;-72
2022/02/18 10:35:17;;;;;;;345.00;89.70;;;;;;;;;;5078041;28;20487;-72
2022/02/18 10:37:53;;;;;;;343.67;91.47;;;;;;;;;;5086572;28;20448;-73
2022/02/18 10:40:22;;;;;;;349.27;94.33;;;;;;;;;;5091517;28;20758;-73
2022/02/18 10:42:54;;;;;;;309.57;95.80;;;;;;;;;;5079693;28;20559;-73
2022/02/18 10:45:27;;;;;;;360.27;91.20;;;;;;;;;;5087704;28;20490;-72
2022/02/18 10:48:14;;;;;;;328.90;90.90;;;;;;;;;;5091970;28;20868;-73
2022/02/18 10:53:44;;;;;;;346.93;93.70;;;;;;;;;;5093271;28;20971;-73
2022/02/18 10:56:16;;;;;;;355.60;96.20;;;;;;;;;;5092744;28;20452;-72
2022/02/18 10:58:46;;;;;;;347.07;93.13;;;;;;;;;;5085165;28;20470;-73
2022/02/18 11:01:14;;;;;;;342.07;89.93;;;;;;;;;;5081309;28;20453;-73
2022/02/18 11:03:43;;;;;;;354.90;91.10;;;;;;;;;;5085273;28;20911;-73
2022/02/18 11:06:16;;;;;;;362.57;94.47;;;;;;;;;;5090712;28;21158;-73
2022/02/18 11:09:00;;;;;;;377.27;94.60;;;;;;;;;;5074920;28;20484;-72
2022/02/18 11:11:42;;;;;;;358.03;94.00;;;;;;;;;;5083681;28;20456;-72
2022/02/18 11:14:12;;;;;;;356.90;89.60;;;;;;;;;;5086301;28;20467;-72
2022/02/18 11:16:41;;;;;;;354.47;94.17;;;;;;;;;;5085320;28;20479;-72
2022/02/18 11:19:20;;;;;;;352.70;94.83;;;;;;;;;;5086551;28;20460;-73
2022/02/18 11:22:10;;;;;;;345.10;86.07;;;;;;;;;;5085553;28;20719;-73
2022/02/18 11:24:46;;;;;;;361.50;95.53;;;;;;;;;;5090009;28;20478;-72
2022/02/18 11:27:21;;;;;;;347.97;90.80;;;;;;;;;;5092606;28;20522;-73
2022/02/18 11:30:08;;;;;;;355.47;92.40;;;;;;;;;;5094872;28;20458;-73
2022/02/18 12:23:35;;;;;;;343.67;88.77;;;;;;;;;;5114043;28;20898;-74
2022/02/18 12:29:34;;;;;;;341.33;82.97;;;;;;;;;;5112041;28;20455;-73
2022/02/18 12:32:08;;;;;;;344.87;89.40;;;;;;;;;;5112946;28;20504;-74
2022/02/18 12:34:47;;;;;;;341.43;87.50;;;;;;;;;;5093779;28;20455;-75
2022/02/18 12:37:20;;;;;;;341.63;87.73;;;;;;;;;;5098955;28;20443;-75
2022/02/18 12:39:54;;;;;;;347.17;86.60;;;;;;;;;;5113727;28;20481;-75
2022/02/18 12:42:27;;;;;;;343.83;87.63;;;;;;;;;;5115437;28;20443;-75
2022/02/18 12:45:06;;;;;;;350.03;89.50;;;;;;;;;;5117525;27;20442;-74
2022/02/18 12:47:35;;;;;;;339.67;83.33;;;;;;;;;;5098035;28;20459;-76
2022/02/18 12:50:07;;;;;;;345.77;87.20;;;;;;;;;;5109821;27;20930;-74
2022/02/18 12:52:39;;;;;;;350.57;92.73;;;;;;;;;;5117734;27;20558;-74
2022/02/18 12:55:10;;;;;;;345.47;87.40;;;;;;;;;;5117716;27;20465;-74
2022/02/18 12:57:42;;;;;;;339.83;85.23;;;;;;;;;;5121578;27;20551;-75
2022/02/18 13:00:12;;;;;;;346.60;90.37;;;;;;;;;;5115840;27;20451;-75
2022/02/18 13:02:46;;;;;;;345.20;86.80;;;;;;;;;;5115588;28;20518;-75
2022/02/18 13:05:16;;;;;;;356.03;93.13;;;;;;;;;;5121353;27;20557;-73
2022/02/18 13:07:49;;;;;;;347.00;92.33;;;;;;;;;;5116278;27;20731;-74
2022/02/18 13:10:23;;;;;;;351.73;92.87;;;;;;;;;;5111660;27;20463;-75
2022/02/18 13:12:55;;;;;;;342.77;89.07;;;;;;;;;;5106673;28;20483;-74
2022/02/18 13:15:24;;;;;;;351.27;93.30;;;;;;;;;;5097704;28;20462;-73
2022/02/18 13:18:06;;;;;;;343.83;83.83;;;;;;;;;;5105179;27;20785;-74
2022/02/18 13:20:38;;;;;;;349.43;91.97;;;;;;;;;;5117244;27;20458;-74
2022/02/18 13:23:11;;;;;;;338.20;81.90;;;;;;;;;;5114954;27;20590;-73
2022/02/18 13:25:50;;;;;;;363.67;97.00;;;;;;;;;;5117101;27;20550;-75
2022/02/18 13:28:21;;;;;;;376.27;102.43;;;;;;;;;;5121290;27;20435;-74
2022/02/18 13:33:36;;;;;;;352.70;91.83;;;;;;;;;;5105436;27;20592;-75
2022/02/18 13:36:11;;;;;;;362.97;96.37;;;;;;;;;;5116071;27;20816;-74
2022/02/18 13:38:49;;;;;;;366.87;97.10;;;;;;;;;;5115378;27;20910;-73
2022/02/18 13:41:42;;;;;;;360.30;102.30;;;;;;;;;;5116091;27;20497;-73
2022/02/18 13:44:23;;;;;;;364.43;95.63;;;;;;;;;;5112750;27;20535;-74
2022/02/18 13:46:54;;;;;;;359.67;92.27;;;;;;;;;;5110512;27;20447;-75
2022/02/18 13:49:31;;;;;;;353.73;94.27;;;;;;;;;;5114481;27;20465;-73
2022/02/18 13:52:04;;;;;;;355.77;94.60;;;;;;;;;;5110755;27;20450;-73
2022/02/18 13:54:35;;;;;;;362.87;97.63;;;;;;;;;;5117501;27;20481;-73
2022/02/18 13:57:23;;;;;;;349.83;89.13;;;;;;;;;;5115171;27;20490;-73
2022/02/18 14:00:01;;;;;;;355.23;90.37;;;;;;;;;;5114239;27;20451;-73
2022/02/18 14:02:29;;;;;;;349.47;96.80;;;;;;;;;;5110323;27;20792;-72
2022/02/18 14:05:03;;;;;;;347.47;92.13;;;;;;;;;;5115762;27;20486;-71
2022/02/18 14:07:44;;;;;;;359.60;103.63;;;;;;;;;;5110710;27;20755;-73
2022/02/18 14:10:18;;;;;;;358.13;93.27;;;;;;;;;;5121042;27;20455;-73
2022/02/18 14:12:54;;;;;;;363.20;103.63;;;;;;;;;;5113449;27;20455;-72
2022/02/18 14:57:22;;;;;;;361.70;95.10;;;;;;;;;;5109688;28;20435;-72
2022/02/18 15:03:09;;;;;;;353.67;97.27;;;;;;;;;;4986044;28;20542;-72
2022/02/18 15:05:39;;;;;;;359.90;98.43;;;;;;;;;;5065331;28;20458;-73
2022/02/18 15:08:18;;;;;;;371.17;116.33;;;;;;;;;;5112399;28;20439;-72
2022/02/18 15:10:47;;;;;;;365.67;109.17;;;;;;;;;;5113677;27;20749;-72
2022/02/18 15:13:24;;;;;;;362.97;109.80;;;;;;;;;;5114607;28;20447;-72
2022/02/18 15:15:56;;;;;;;362.47;98.97;;;;;;;;;;5113069;28;20462;-73
2022/02/18 15:18:30;;;;;;;370.47;107.80;;;;;;;;;;5113245;28;20483;-73
2022/02/18 15:21:01;;;;;;;359.50;97.57;;;;;;;;;;5112852;28;20461;-72
2022/02/18 15:23:36;;;;;;;358.20;97.70;;;;;;;;;;5104843;28;20450;-75
2022/02/18 15:26:13;;;;;;;365.03;103.90;;;;;;;;;;5116964;28;20500;-73
2022/02/18 15:29:07;;;;;;;358.07;102.47;;;;;;;;;;5107392;28;20487;-73
2022/02/18 15:34:40;;;;;;;368.87;113.00;;;;;;;;;;5110480;28;20457;-72
2022/02/18 15:37:19;;;;;;;363.70;106.83;;;;;;;;;;5110776;28;21111;-72
2022/02/18 15:42:44;;;;;;;369.13;109.03;;;;;;;;;;5111537;28;20476;-72
2022/02/18 15:45:20;;;;;;;367.10;110.70;;;;;;;;;;5112124;28;20509;-72
2022/02/18 15:47:50;;;;;;;363.70;102.00;;;;;;;;;;5112877;28;20584;-72
2022/02/18 15:50:21;;;;;;;373.37;110.57;;;;;;;;;;5110609;28;20454;-73
2022/02/18 15:52:50;;;;;;;362.70;96.53;;;;;;;;;;5110234;28;20524;-73
2022/02/18 15:58:08;;;;;;;357.13;96.40;;;;;;;;;;5104952;28;20454;-73
2022/02/18 16:00:37;;;;;;;362.10;102.77;;;;;;;;;;5111604;28;20913;-73
2022/02/18 16:03:13;;;;;;;370.93;114.67;;;;;;;;;;5110610;28;20526;-72
2022/02/18 16:05:46;;;;;;;360.60;102.07;;;;;;;;;;5106098;28;20486;-74
2022/02/18 16:08:34;;;;;;;365.00;109.37;;;;;;;;;;5109022;28;20442;-72
2022/02/18 16:11:02;;;;;;;360.80;97.50;;;;;;;;;;5112238;28;20706;-75
2022/02/18 16:13:31;;;;;;;360.17;100.23;;;;;;;;;;5112267;28;20434;-72
2022/02/18 16:16:01;;;;;;;374.07;107.33;;;;;;;;;;5114542;27;20451;-73
2022/02/18 16:18:31;;;;;;;358.37;106.03;;;;;;;;;;5110361;27;20443;-73
2022/02/18 16:20:59;;;;;;;364.40;109.20;;;;;;;;;;5117162;27;20458;-75
2022/02/18 16:23:36;;;;;;;355.03;94.03;;;;;;;;;;5108845;28;20451;-75
2022/02/18 16:26:06;;;;;;;354.67;96.07;;;;;;;;;;5107328;27;20449;-73
2022/02/18 16:28:34;;;;;;;363.13;99.47;;;;;;;;;;5114502;27;20792;-74
2022/02/18 16:31:01;;;;;;;358.30;99.90;;;;;;;;;;5118519;27;20897;-73